createdAt,value
2016-07-22T00:00:54.607Z,18.6
2016-07-22T00:04:08.479Z,18.6
2016-07-22T00:07:27.251Z,18.6
2016-07-22T00:10:31.461Z,18.5
2016-07-22T00:13:45.434Z,18.5
2016-07-22T00:16:59.176Z,18.4
2016-07-22T00:20:13.072Z,18.4
2016-07-22T00:23:31.960Z,18.4
2016-07-22T00:26:36.249Z,18.3
2016-07-22T00:29:49.471Z,18.3
2016-07-22T00:33:02.533Z,18.3
2016-07-22T00:36:16.520Z,18.3
2016-07-22T00:39:35.089Z,18.2
2016-07-22T00:42:39.076Z,18.1
2016-07-22T00:45:53.768Z,18.1
2016-07-22T00:49:02.769Z,18.1
2016-07-22T00:52:15.403Z,18
2016-07-22T00:55:34.207Z,18
2016-07-22T00:58:38.430Z,17.9
2016-07-22T01:01:51.990Z,17.9
2016-07-22T01:05:05.716Z,17.9
2016-07-22T01:08:19.474Z,17.9
2016-07-22T01:11:38.241Z,17.8
2016-07-22T01:14:42.335Z,17.7
2016-07-22T01:17:56.192Z,17.6
2016-07-22T01:21:10.092Z,17.6
2016-07-22T01:24:29.206Z,17.5
2016-07-22T01:27:38.321Z,17.5
2016-07-22T01:30:42.406Z,17.5
2016-07-22T01:33:56.187Z,17.4
2016-07-22T01:37:10.039Z,17.4
2016-07-22T01:40:28.896Z,17.4
2016-07-22T01:43:38.073Z,17.4
2016-07-22T01:46:42.232Z,17.4
2016-07-22T01:49:56.250Z,17.3
2016-07-22T01:53:10.290Z,17.3
2016-07-22T01:56:28.996Z,17.3
2016-07-22T01:59:37.953Z,17.3
2016-07-22T02:02:42.117Z,17.3
2016-07-22T02:05:55.804Z,17.2
2016-07-22T02:09:09.421Z,17.2
2016-07-22T02:12:23.132Z,17.1
2016-07-22T02:15:36.862Z,17
2016-07-22T02:18:50.341Z,17
2016-07-22T02:22:04.353Z,17
2016-07-22T02:25:18.226Z,16.9
2016-07-22T02:28:36.747Z,16.9
2016-07-22T02:31:40.854Z,16.9
2016-07-22T02:34:54.646Z,16.9
2016-07-22T02:38:08.448Z,16.9
2016-07-22T02:41:22.492Z,16.9
2016-07-22T02:44:35.974Z,16.8
2016-07-22T02:47:49.779Z,16.7
2016-07-22T02:51:03.484Z,16.7
2016-07-22T02:54:17.110Z,16.7
2016-07-22T02:57:35.933Z,16.6
2016-07-22T03:00:40.077Z,16.6
2016-07-22T03:03:53.664Z,16.5
2016-07-22T03:07:07.455Z,16.4
2016-07-22T03:10:21.187Z,16.4
2016-07-22T03:13:32.781Z,16.3
2016-07-22T03:16:48.688Z,16.3
2016-07-22T03:20:02.303Z,16.2
2016-07-22T03:23:16.154Z,16.3
2016-07-22T03:26:34.984Z,16.3
2016-07-22T03:29:38.986Z,16.2
2016-07-22T03:32:52.729Z,16.2
2016-07-22T03:36:06.513Z,16.2
2016-07-22T03:39:20.018Z,16
2016-07-22T03:42:33.840Z,16
2016-07-22T03:45:47.308Z,16
2016-07-22T03:49:01.273Z,16
2016-07-22T03:52:14.722Z,15.9
2016-07-22T03:55:33.427Z,15.8
2016-07-22T03:58:37.565Z,15.8
2016-07-22T04:01:51.280Z,15.9
2016-07-22T04:05:05.116Z,15.8
2016-07-22T04:08:18.958Z,15.8
2016-07-22T04:11:37.637Z,15.8
2016-07-22T04:14:41.652Z,15.8
2016-07-22T04:17:55.022Z,15.8
2016-07-22T04:21:08.840Z,15.8
2016-07-22T04:24:22.463Z,15.7
2016-07-22T04:27:36.095Z,15.7
2016-07-22T04:30:49.716Z,15.7
2016-07-22T04:34:03.466Z,15.7
2016-07-22T04:37:16.950Z,15.7
2016-07-22T04:40:35.694Z,15.7
2016-07-22T04:43:39.681Z,15.7
2016-07-22T04:46:53.422Z,15.8
2016-07-22T04:50:07.173Z,15.8
2016-07-22T04:53:20.877Z,15.8
2016-07-22T04:56:34.453Z,15.9
2016-07-22T04:59:46.281Z,15.9
2016-07-22T05:02:58.061Z,16
2016-07-22T05:06:13.739Z,16.1
2016-07-22T05:09:32.232Z,16.2
2016-07-22T05:12:36.286Z,16.4
2016-07-22T05:15:50.128Z,16.6
2016-07-22T05:19:03.835Z,16.8
2016-07-22T05:22:17.751Z,17
2016-07-22T05:25:36.767Z,17.1
2016-07-22T05:28:38.868Z,17.3
2016-07-22T05:31:55.004Z,17.5
2016-07-22T05:35:08.940Z,17.7
2016-07-22T05:38:22.977Z,17.8
2016-07-22T05:41:36.809Z,18
2016-07-22T05:44:50.734Z,18.2
2016-07-22T05:48:04.612Z,18.4
2016-07-22T05:51:18.044Z,18.5
2016-07-22T05:54:36.658Z,18.7
2016-07-22T05:57:40.881Z,18.9
2016-07-22T06:00:54.640Z,19
2016-07-22T06:04:08.709Z,19.1
2016-07-22T06:07:22.578Z,19.4
2016-07-22T06:10:36.208Z,19.6
2016-07-22T06:13:50.547Z,19.7
2016-07-22T06:17:04.467Z,19.9
2016-07-22T06:20:16.417Z,20.1
2016-07-22T06:23:32.671Z,20.4
2016-07-22T06:26:37.029Z,20.7
2016-07-22T06:29:51.346Z,21
2016-07-22T06:33:05.597Z,21.1
2016-07-22T06:36:18.010Z,21.3
2016-07-22T06:39:37.388Z,21.6
2016-07-22T06:42:42.111Z,21.9
2016-07-22T06:45:56.198Z,22.2
2016-07-22T06:49:08.249Z,22.6
2016-07-22T06:52:29.646Z,23.1
2016-07-22T06:55:34.512Z,23.8
2016-07-22T06:58:49.089Z,24.2
2016-07-22T07:02:03.626Z,24.8
2016-07-22T07:05:18.287Z,25.5
2016-07-22T07:08:38.205Z,26.2
2016-07-22T07:11:43.418Z,26.6
2016-07-22T07:14:58.194Z,26.4
2016-07-22T07:18:12.555Z,25.8
2016-07-22T07:21:31.848Z,25.3
2016-07-22T07:24:36.376Z,25
2016-07-22T07:27:50.692Z,24.9
2016-07-22T07:31:04.988Z,24.8
2016-07-22T07:34:19.349Z,24.7
2016-07-22T07:37:38.762Z,24.7
2016-07-22T07:40:43.408Z,24.6
2016-07-22T07:43:57.699Z,24.6
2016-07-22T07:47:11.917Z,24.7
2016-07-22T07:50:23.812Z,24.9
2016-07-22T07:53:38.172Z,25
2016-07-22T07:56:52.368Z,24.9
2016-07-22T08:00:06.370Z,24.9
2016-07-22T08:03:20.666Z,25
2016-07-22T08:06:35.208Z,25.2
2016-07-22T08:09:49.639Z,25.4
2016-07-22T08:13:03.882Z,25.5
2016-07-22T08:16:18.373Z,25.5
2016-07-22T08:19:37.980Z,25.5
2016-07-22T08:22:42.684Z,25.8
2016-07-22T08:25:56.857Z,25.8
2016-07-22T08:29:09.355Z,25.8
2016-07-22T08:32:30.352Z,25.7
2016-07-22T08:35:35.085Z,25.6
2016-07-22T08:38:49.363Z,25.7
2016-07-22T08:42:03.577Z,25.7
2016-07-22T08:45:16.239Z,25.8
2016-07-22T08:48:35.588Z,26.1
2016-07-22T08:51:40.380Z,26.2
2016-07-22T08:54:54.984Z,26.4
2016-07-22T08:58:09.340Z,26.2
2016-07-22T09:01:23.494Z,26.1
2016-07-22T09:04:37.535Z,25.7
2016-07-22T09:07:52.059Z,25.6
2016-07-22T09:11:06.333Z,25.6
2016-07-22T09:14:20.813Z,25.5
2016-07-22T09:17:35.165Z,25.6
2016-07-22T09:20:49.611Z,25.8
2016-07-22T09:24:03.901Z,26
2016-07-22T09:27:18.314Z,26
2016-07-22T09:30:37.666Z,25.6
2016-07-22T09:33:42.431Z,25.5
2016-07-22T09:36:56.799Z,25.4
2016-07-22T09:40:11.250Z,25.2
2016-07-22T09:43:30.493Z,25.2
2016-07-22T09:46:35.213Z,25.3
2016-07-22T09:49:47.578Z,25.4
2016-07-22T09:53:03.888Z,25.4
2016-07-22T09:56:18.240Z,25.5
2016-07-22T09:59:37.709Z,25.5
2016-07-22T10:02:42.460Z,25.6
2016-07-22T10:05:56.858Z,25.7
2016-07-22T10:09:11.270Z,25.7
2016-07-22T10:12:30.433Z,25.7
2016-07-22T10:15:40.062Z,25.7
2016-07-22T10:18:44.702Z,25.6
2016-07-22T10:21:59.163Z,25.6
2016-07-22T10:25:13.346Z,25.6
2016-07-22T10:28:32.760Z,25.7
2016-07-22T10:31:37.392Z,25.6
2016-07-22T10:34:51.768Z,25.8
2016-07-22T10:38:06.103Z,26
2016-07-22T10:41:20.539Z,26.5
2016-07-22T10:44:39.074Z,27.3
2016-07-22T10:47:43.919Z,28.6
2016-07-22T10:50:58.481Z,28.9
2016-07-22T10:54:13.342Z,29.1
2016-07-22T10:57:33.222Z,30.2
2016-07-22T11:00:38.204Z,30.5
2016-07-22T11:03:52.559Z,29.9
2016-07-22T11:07:07.231Z,28.9
2016-07-22T11:10:21.808Z,28.1
2016-07-22T11:13:36.217Z,27.3
2016-07-22T11:16:50.655Z,26.8
2016-07-22T11:20:04.722Z,26.6
2016-07-22T11:23:18.909Z,26.3
2016-07-22T11:26:38.537Z,26.2
2016-07-22T11:29:43.100Z,26
2016-07-22T11:32:57.479Z,25.8
2016-07-22T11:36:11.801Z,25.6
2016-07-22T11:39:24.407Z,25.4
2016-07-22T11:42:36.657Z,25.2
2016-07-22T11:45:53.203Z,25.1
2016-07-22T11:49:07.669Z,25
2016-07-22T11:52:21.919Z,24.9
2016-07-22T11:55:36.388Z,24.8
2016-07-22T11:58:50.824Z,24.7
2016-07-22T12:02:03.362Z,24.6
2016-07-22T12:05:19.453Z,24.5
2016-07-22T12:08:38.916Z,24.5
2016-07-22T12:11:43.650Z,24.4
2016-07-22T12:14:58.111Z,24.4
2016-07-22T12:18:12.556Z,24.4
2016-07-22T12:21:31.584Z,24.3
2016-07-22T12:24:36.262Z,24.3
2016-07-22T12:27:50.622Z,24.2
2016-07-22T12:31:04.678Z,24.2
2016-07-22T12:34:17.082Z,24.2
2016-07-22T12:37:36.441Z,24.2
2016-07-22T12:40:41.086Z,24.2
2016-07-22T12:43:53.261Z,24.1
2016-07-22T12:47:09.830Z,24.1
2016-07-22T12:50:24.040Z,24.1
2016-07-22T12:53:38.209Z,24.1
2016-07-22T12:56:52.383Z,24.1
2016-07-22T13:00:06.723Z,24.1
2016-07-22T13:03:20.756Z,24.1
2016-07-22T13:06:39.841Z,24.2
2016-07-22T13:09:44.564Z,24.1
2016-07-22T13:12:56.129Z,24.1
2016-07-22T13:16:10.535Z,24.1
2016-07-22T13:19:24.796Z,24.1
2016-07-22T13:22:39.120Z,24.1
2016-07-22T13:25:54.721Z,24.1
2016-07-22T13:29:04.943Z,24.1
2016-07-22T13:32:19.091Z,24.1
2016-07-22T13:35:38.399Z,24.1
2016-07-22T13:38:43.133Z,24.1
2016-07-22T13:41:57.376Z,24
2016-07-22T13:45:11.719Z,24
2016-07-22T13:48:25.982Z,24
2016-07-22T13:51:40.406Z,24
2016-07-22T13:54:54.784Z,24.1
2016-07-22T13:58:09.258Z,24.2
2016-07-22T14:01:23.487Z,24.1
2016-07-22T14:04:37.763Z,24.1
2016-07-22T14:07:52.226Z,24.2
2016-07-22T18:08:39.831Z,22.9
2016-07-22T18:11:52.698Z,22.7
2016-07-22T18:14:57.263Z,22.7
2016-07-22T18:18:11.100Z,22.6
2016-07-22T18:21:25.348Z,22.5
2016-07-22T18:24:39.600Z,22.4
2016-07-22T18:27:53.718Z,22.3
2016-07-22T18:31:07.895Z,22.2
2016-07-22T18:34:21.879Z,22.1
2016-07-22T18:37:36.052Z,22
2016-07-22T18:40:55.250Z,21.9
2016-07-22T18:43:59.840Z,21.8
2016-07-22T18:47:14.180Z,21.7
2016-07-22T18:50:28.418Z,21.7
2016-07-22T18:53:47.774Z,21.6
2016-07-22T18:56:52.214Z,21.5
2016-07-22T19:00:06.398Z,21.4
2016-07-22T19:03:20.409Z,21.2
2016-07-22T19:06:34.349Z,21.1
2016-07-22T19:09:53.078Z,20.9
2016-07-22T19:12:57.421Z,20.8
2016-07-22T19:16:11.401Z,20.6
2016-07-22T19:19:25.415Z,20.4
2016-07-22T19:22:38.782Z,20.3
2016-07-22T19:25:52.824Z,20.2
2016-07-22T19:29:06.043Z,20
2016-07-22T19:32:24.069Z,19.9
2016-07-22T19:35:33.520Z,19.7
2016-07-22T19:38:52.470Z,19.6
2016-07-22T19:41:56.557Z,19.4
2016-07-22T19:45:10.127Z,19.4
2016-07-22T19:48:24.039Z,19.3
2016-07-22T19:51:37.921Z,19.3
2016-07-22T19:54:51.581Z,19.2
2016-07-22T19:58:05.517Z,19.2
2016-07-22T20:01:19.456Z,19.1
2016-07-22T20:04:33.414Z,19.1
2016-07-22T20:07:52.396Z,19
2016-07-22T20:10:56.543Z,19
2016-07-22T20:14:10.430Z,18.9
2016-07-22T20:17:24.186Z,18.9
2016-07-22T20:20:37.845Z,18.9
2016-07-22T20:23:51.676Z,19
2016-07-22T20:27:03.280Z,19
2016-07-22T20:30:17.306Z,18.9
2016-07-22T20:33:27.194Z,18.9
2016-07-22T20:36:48.010Z,18.9
2016-07-22T20:39:52.205Z,18.9
2016-07-22T20:43:05.846Z,18.9
2016-07-22T20:46:19.291Z,18.9
2016-07-22T20:49:33.188Z,18.9
2016-07-22T20:52:51.862Z,18.9
2016-07-22T20:55:56.010Z,18.9
2016-07-22T20:59:09.942Z,18.8
2016-07-22T21:02:23.885Z,18.7
2016-07-22T21:05:37.706Z,18.7
2016-07-22T21:08:51.742Z,18.7
2016-07-22T21:12:05.603Z,18.6
2016-07-22T21:15:19.660Z,18.6
2016-07-22T21:18:33.589Z,18.5
2016-07-22T21:21:52.308Z,18.5
2016-07-22T21:24:56.467Z,18.4
2016-07-22T21:28:08.180Z,18.3
2016-07-22T21:31:24.276Z,18.2
2016-07-22T21:34:37.903Z,18.2
2016-07-22T21:37:51.730Z,18.2
2016-07-22T21:41:05.366Z,18.1
2016-07-22T21:44:19.160Z,18.1
2016-07-22T21:47:33.075Z,18
2016-07-22T21:50:51.829Z,17.9
2016-07-22T21:53:55.871Z,17.9
2016-07-22T21:57:09.718Z,17.8
2016-07-22T22:00:23.538Z,17.8
2016-07-22T22:03:37.323Z,17.8
2016-07-22T22:06:55.821Z,17.7
2016-07-22T22:09:59.954Z,17.7
2016-07-22T22:13:13.715Z,17.6
2016-07-22T22:16:27.629Z,17.5
2016-07-22T22:19:41.361Z,17.5
2016-07-22T22:22:55.020Z,17.4
2016-07-22T22:26:08.704Z,17.3
2016-07-22T22:29:22.281Z,17.3
2016-07-22T22:32:36.057Z,17.2
2016-07-22T22:35:55.104Z,17.1
2016-07-22T22:38:59.134Z,17.1
2016-07-22T22:42:12.989Z,17
2016-07-22T22:45:26.675Z,17
2016-07-22T22:48:40.208Z,17
2016-07-22T22:51:53.688Z,16.9
2016-07-22T22:55:07.139Z,16.9
2016-07-22T22:58:21.194Z,16.8
2016-07-22T23:01:32.278Z,16.7
2016-07-22T23:04:47.930Z,16.7
2016-07-22T23:07:51.826Z,16.6
2016-07-22T23:11:04.997Z,16.6
2016-07-22T23:14:18.824Z,16.6
2016-07-22T23:17:32.040Z,16.5
2016-07-22T23:20:50.431Z,16.5
2016-07-22T23:23:54.271Z,16.5
2016-07-22T23:27:07.859Z,16.4
2016-07-22T23:30:21.375Z,16.4
2016-07-22T23:33:35.000Z,16.4
2016-07-22T23:36:53.904Z,16.3
2016-07-22T23:39:57.784Z,16.3
2016-07-22T23:43:11.335Z,16.2
2016-07-22T23:46:23.968Z,16.2
2016-07-22T23:49:37.660Z,16.1
2016-07-22T23:52:56.202Z,16.1
2016-07-22T23:56:00.151Z,16.1
2016-07-22T23:59:11.814Z,16.1
